sensor_id;sensor_type;location;lat;lon;timestamp;P1;durP1;ratioP1;P2;durP2;ratioP2
7017;SDS011;3549;42.162;24.726;2023-03-14T00:00:35;13.13;;;6.53;;
7017;SDS011;3549;42.162;24.726;2023-03-14T00:03:01;12.40;;;6.53;;
7017;SDS011;3549;42.162;24.726;2023-03-14T00:05:26;12.17;;;6.90;;
7017;SDS011;3549;42.162;24.726;2023-03-14T00:07:52;18.80;;;8.13;;
7017;SDS011;3549;42.162;24.726;2023-03-14T00:10:18;13.87;;;7.73;;
7017;SDS011;3549;42.162;24.726;2023-03-14T00:12:43;12.00;;;6.27;;
7017;SDS011;3549;42.162;24.726;2023-03-14T00:15:09;10.60;;;5.77;;
7017;SDS011;3549;42.162;24.726;2023-03-14T00:17:36;10.97;;;6.33;;
7017;SDS011;3549;42.162;24.726;2023-03-14T00:20:03;12.13;;;6.50;;
7017;SDS011;3549;42.162;24.726;2023-03-14T00:22:36;12.67;;;6.70;;
7017;SDS011;3549;42.162;24.726;2023-03-14T00:25:03;16.13;;;6.57;;
7017;SDS011;3549;42.162;24.726;2023-03-14T00:27:30;15.10;;;6.30;;
7017;SDS011;3549;42.162;24.726;2023-03-14T00:29:55;11.47;;;6.43;;
7017;SDS011;3549;42.162;24.726;2023-03-14T00:32:21;14.87;;;7.37;;
7017;SDS011;3549;42.162;24.726;2023-03-14T00:34:46;12.90;;;6.70;;
7017;SDS011;3549;42.162;24.726;2023-03-14T00:37:12;12.80;;;7.13;;
7017;SDS011;3549;42.162;24.726;2023-03-14T00:39:37;14.93;;;7.63;;
7017;SDS011;3549;42.162;24.726;2023-03-14T00:42:02;14.80;;;7.17;;
7017;SDS011;3549;42.162;24.726;2023-03-14T00:44:28;15.37;;;7.70;;
7017;SDS011;3549;42.162;24.726;2023-03-14T00:46:53;16.10;;;8.07;;
7017;SDS011;3549;42.162;24.726;2023-03-14T00:49:19;14.97;;;7.93;;
7017;SDS011;3549;42.162;24.726;2023-03-14T00:51:44;17.17;;;8.57;;
7017;SDS011;3549;42.162;24.726;2023-03-14T00:54:10;18.80;;;8.47;;
7017;SDS011;3549;42.162;24.726;2023-03-14T00:56:35;20.17;;;9.03;;
7017;SDS011;3549;42.162;24.726;2023-03-14T00:59:01;19.10;;;9.93;;
7017;SDS011;3549;42.162;24.726;2023-03-14T01:01:26;20.57;;;10.30;;
7017;SDS011;3549;42.162;24.726;2023-03-14T01:03:53;23.93;;;10.43;;
7017;SDS011;3549;42.162;24.726;2023-03-14T01:06:21;18.27;;;10.10;;
7017;SDS011;3549;42.162;24.726;2023-03-14T01:08:51;21.83;;;10.00;;
7017;SDS011;3549;42.162;24.726;2023-03-14T01:11:18;27.90;;;11.50;;
7017;SDS011;3549;42.162;24.726;2023-03-14T01:13:47;22.90;;;10.53;;
7017;SDS011;3549;42.162;24.726;2023-03-14T01:16:13;22.20;;;10.90;;
7017;SDS011;3549;42.162;24.726;2023-03-14T01:18:40;21.83;;;10.33;;
7017;SDS011;3549;42.162;24.726;2023-03-14T01:21:21;19.67;;;10.43;;
7017;SDS011;3549;42.162;24.726;2023-03-14T01:23:49;22.40;;;11.10;;
7017;SDS011;3549;42.162;24.726;2023-03-14T01:26:17;22.87;;;11.67;;
7017;SDS011;3549;42.162;24.726;2023-03-14T01:28:44;21.73;;;10.97;;
7017;SDS011;3549;42.162;24.726;2023-03-14T01:31:10;23.40;;;10.20;;
7017;SDS011;3549;42.162;24.726;2023-03-14T01:33:36;24.93;;;11.33;;
7017;SDS011;3549;42.162;24.726;2023-03-14T01:36:02;25.07;;;11.87;;
7017;SDS011;3549;42.162;24.726;2023-03-14T01:38:29;21.23;;;11.13;;
7017;SDS011;3549;42.162;24.726;2023-03-14T01:40:56;26.27;;;11.67;;
7017;SDS011;3549;42.162;24.726;2023-03-14T01:43:22;21.47;;;10.50;;
7017;SDS011;3549;42.162;24.726;2023-03-14T01:48:37;24.63;;;11.13;;
7017;SDS011;3549;42.162;24.726;2023-03-14T01:51:14;21.20;;;10.77;;
7017;SDS011;3549;42.162;24.726;2023-03-14T01:53:45;18.63;;;10.37;;
7017;SDS011;3549;42.162;24.726;2023-03-14T01:56:13;25.17;;;11.03;;
7017;SDS011;3549;42.162;24.726;2023-03-14T01:58:42;26.07;;;11.93;;
7017;SDS011;3549;42.162;24.726;2023-03-14T02:01:14;22.97;;;10.93;;
7017;SDS011;3549;42.162;24.726;2023-03-14T02:03:46;23.67;;;11.27;;
7017;SDS011;3549;42.162;24.726;2023-03-14T02:06:20;22.20;;;11.87;;
7017;SDS011;3549;42.162;24.726;2023-03-14T02:08:50;22.57;;;10.93;;
7017;SDS011;3549;42.162;24.726;2023-03-14T02:11:16;35.83;;;16.60;;
7017;SDS011;3549;42.162;24.726;2023-03-14T02:13:42;243.93;;;69.17;;
7017;SDS011;3549;42.162;24.726;2023-03-14T02:16:08;149.17;;;44.67;;
7017;SDS011;3549;42.162;24.726;2023-03-14T02:18:34;40.00;;;17.10;;
7017;SDS011;3549;42.162;24.726;2023-03-14T02:21:00;23.90;;;12.17;;
7017;SDS011;3549;42.162;24.726;2023-03-14T02:26:09;26.07;;;12.10;;
7017;SDS011;3549;42.162;24.726;2023-03-14T02:28:40;29.07;;;12.63;;
7017;SDS011;3549;42.162;24.726;2023-03-14T02:31:06;27.47;;;12.13;;
7017;SDS011;3549;42.162;24.726;2023-03-14T02:33:33;24.43;;;12.40;;
7017;SDS011;3549;42.162;24.726;2023-03-14T02:36:04;26.10;;;13.13;;
7017;SDS011;3549;42.162;24.726;2023-03-14T02:41:03;24.07;;;12.40;;
7017;SDS011;3549;42.162;24.726;2023-03-14T02:43:28;29.47;;;13.33;;
7017;SDS011;3549;42.162;24.726;2023-03-14T02:45:54;31.93;;;16.50;;
7017;SDS011;3549;42.162;24.726;2023-03-14T02:48:21;29.47;;;15.20;;
7017;SDS011;3549;42.162;24.726;2023-03-14T02:50:54;27.33;;;13.63;;
7017;SDS011;3549;42.162;24.726;2023-03-14T02:53:23;24.93;;;12.63;;
7017;SDS011;3549;42.162;24.726;2023-03-14T02:55:51;30.13;;;14.60;;
7017;SDS011;3549;42.162;24.726;2023-03-14T02:58:17;41.97;;;18.40;;
7017;SDS011;3549;42.162;24.726;2023-03-14T03:00:43;120.63;;;45.27;;
7017;SDS011;3549;42.162;24.726;2023-03-14T03:03:09;160.77;;;58.53;;
7017;SDS011;3549;42.162;24.726;2023-03-14T03:05:35;123.03;;;50.17;;
7017;SDS011;3549;42.162;24.726;2023-03-14T03:08:07;88.47;;;38.90;;
7017;SDS011;3549;42.162;24.726;2023-03-14T03:10:33;43.43;;;18.93;;
7017;SDS011;3549;42.162;24.726;2023-03-14T03:12:59;37.10;;;18.10;;
7017;SDS011;3549;42.162;24.726;2023-03-14T03:15:25;45.87;;;20.80;;
7017;SDS011;3549;42.162;24.726;2023-03-14T03:17:50;44.43;;;17.80;;
7017;SDS011;3549;42.162;24.726;2023-03-14T03:20:15;34.80;;;14.93;;
7017;SDS011;3549;42.162;24.726;2023-03-14T03:22:41;41.53;;;15.17;;
7017;SDS011;3549;42.162;24.726;2023-03-14T03:25:07;32.23;;;13.90;;
7017;SDS011;3549;42.162;24.726;2023-03-14T03:27:34;30.03;;;13.30;;
7017;SDS011;3549;42.162;24.726;2023-03-14T03:30:01;32.27;;;13.53;;
7017;SDS011;3549;42.162;24.726;2023-03-14T03:32:27;31.37;;;12.23;;
7017;SDS011;3549;42.162;24.726;2023-03-14T03:34:52;29.87;;;13.00;;
7017;SDS011;3549;42.162;24.726;2023-03-14T03:37:18;28.03;;;13.67;;
7017;SDS011;3549;42.162;24.726;2023-03-14T03:39:44;27.40;;;13.43;;
7017;SDS011;3549;42.162;24.726;2023-03-14T03:42:09;27.30;;;13.40;;
7017;SDS011;3549;42.162;24.726;2023-03-14T03:44:35;31.00;;;12.70;;
7017;SDS011;3549;42.162;24.726;2023-03-14T03:47:01;29.63;;;12.80;;
7017;SDS011;3549;42.162;24.726;2023-03-14T03:49:30;32.33;;;13.83;;
7017;SDS011;3549;42.162;24.726;2023-03-14T03:51:56;33.13;;;12.93;;
7017;SDS011;3549;42.162;24.726;2023-03-14T03:54:22;26.83;;;11.87;;
7017;SDS011;3549;42.162;24.726;2023-03-14T03:56:48;26.17;;;12.33;;
7017;SDS011;3549;42.162;24.726;2023-03-14T03:59:13;33.70;;;13.30;;
7017;SDS011;3549;42.162;24.726;2023-03-14T04:01:39;33.73;;;13.97;;
7017;SDS011;3549;42.162;24.726;2023-03-14T04:04:05;31.37;;;13.37;;
7017;SDS011;3549;42.162;24.726;2023-03-14T04:06:30;32.93;;;14.03;;
7017;SDS011;3549;42.162;24.726;2023-03-14T04:08:55;33.17;;;15.03;;
7017;SDS011;3549;42.162;24.726;2023-03-14T04:11:21;31.77;;;13.80;;
7017;SDS011;3549;42.162;24.726;2023-03-14T04:13:46;29.47;;;14.30;;
7017;SDS011;3549;42.162;24.726;2023-03-14T04:16:19;35.77;;;14.83;;
7017;SDS011;3549;42.162;24.726;2023-03-14T04:18:46;30.77;;;14.17;;
7017;SDS011;3549;42.162;24.726;2023-03-14T04:21:12;44.17;;;16.47;;
7017;SDS011;3549;42.162;24.726;2023-03-14T04:23:38;37.60;;;15.50;;
7017;SDS011;3549;42.162;24.726;2023-03-14T04:26:03;42.60;;;18.93;;
7017;SDS011;3549;42.162;24.726;2023-03-14T04:28:29;85.47;;;31.97;;
7017;SDS011;3549;42.162;24.726;2023-03-14T04:30:54;67.57;;;28.43;;
7017;SDS011;3549;42.162;24.726;2023-03-14T04:33:20;83.00;;;32.53;;
7017;SDS011;3549;42.162;24.726;2023-03-14T04:35:46;134.83;;;48.03;;
7017;SDS011;3549;42.162;24.726;2023-03-14T04:38:12;180.40;;;58.47;;
7017;SDS011;3549;42.162;24.726;2023-03-14T04:40:38;114.20;;;40.73;;
7017;SDS011;3549;42.162;24.726;2023-03-14T04:43:05;138.40;;;47.97;;
7017;SDS011;3549;42.162;24.726;2023-03-14T04:45:31;164.53;;;63.10;;
7017;SDS011;3549;42.162;24.726;2023-03-14T04:47:56;91.33;;;35.33;;
7017;SDS011;3549;42.162;24.726;2023-03-14T04:50:21;70.20;;;24.57;;
7017;SDS011;3549;42.162;24.726;2023-03-14T04:52:47;72.57;;;23.10;;
7017;SDS011;3549;42.162;24.726;2023-03-14T04:55:13;59.87;;;22.97;;
7017;SDS011;3549;42.162;24.726;2023-03-14T04:57:38;51.60;;;23.40;;
7017;SDS011;3549;42.162;24.726;2023-03-14T05:00:04;68.50;;;27.37;;
7017;SDS011;3549;42.162;24.726;2023-03-14T05:02:31;79.43;;;29.20;;
7017;SDS011;3549;42.162;24.726;2023-03-14T05:04:57;69.80;;;28.40;;
7017;SDS011;3549;42.162;24.726;2023-03-14T05:07:22;98.57;;;42.43;;
7017;SDS011;3549;42.162;24.726;2023-03-14T05:09:48;104.53;;;39.90;;
7017;SDS011;3549;42.162;24.726;2023-03-14T05:12:14;137.47;;;49.63;;
7017;SDS011;3549;42.162;24.726;2023-03-14T05:14:39;108.63;;;40.83;;
7017;SDS011;3549;42.162;24.726;2023-03-14T05:17:05;103.47;;;42.00;;
7017;SDS011;3549;42.162;24.726;2023-03-14T05:19:30;86.23;;;37.60;;
7017;SDS011;3549;42.162;24.726;2023-03-14T05:21:56;136.47;;;56.50;;
7017;SDS011;3549;42.162;24.726;2023-03-14T05:24:21;140.47;;;57.33;;
7017;SDS011;3549;42.162;24.726;2023-03-14T05:26:47;43.20;;;20.33;;
7017;SDS011;3549;42.162;24.726;2023-03-14T05:29:12;55.67;;;25.67;;
7017;SDS011;3549;42.162;24.726;2023-03-14T05:31:38;125.70;;;48.97;;
7017;SDS011;3549;42.162;24.726;2023-03-14T05:34:03;76.67;;;33.13;;
7017;SDS011;3549;42.162;24.726;2023-03-14T05:36:29;43.53;;;19.30;;
7017;SDS011;3549;42.162;24.726;2023-03-14T05:38:54;44.80;;;21.17;;
7017;SDS011;3549;42.162;24.726;2023-03-14T05:41:20;47.30;;;22.23;;
7017;SDS011;3549;42.162;24.726;2023-03-14T05:43:45;62.33;;;24.90;;
7017;SDS011;3549;42.162;24.726;2023-03-14T05:46:11;130.10;;;46.60;;
7017;SDS011;3549;42.162;24.726;2023-03-14T05:48:36;122.27;;;43.47;;
7017;SDS011;3549;42.162;24.726;2023-03-14T05:51:02;104.10;;;38.77;;
7017;SDS011;3549;42.162;24.726;2023-03-14T05:53:27;83.07;;;35.30;;
7017;SDS011;3549;42.162;24.726;2023-03-14T05:55:54;66.27;;;30.53;;
7017;SDS011;3549;42.162;24.726;2023-03-14T05:58:21;47.03;;;22.20;;
7017;SDS011;3549;42.162;24.726;2023-03-14T06:00:46;53.13;;;24.43;;
7017;SDS011;3549;42.162;24.726;2023-03-14T06:03:12;45.33;;;20.87;;
7017;SDS011;3549;42.162;24.726;2023-03-14T06:05:38;38.10;;;16.70;;
7017;SDS011;3549;42.162;24.726;2023-03-14T06:08:03;42.47;;;19.70;;
7017;SDS011;3549;42.162;24.726;2023-03-14T06:10:29;34.20;;;16.73;;
7017;SDS011;3549;42.162;24.726;2023-03-14T06:12:55;85.93;;;30.30;;
7017;SDS011;3549;42.162;24.726;2023-03-14T06:15:20;68.80;;;31.93;;
7017;SDS011;3549;42.162;24.726;2023-03-14T06:17:45;58.87;;;25.57;;
7017;SDS011;3549;42.162;24.726;2023-03-14T06:20:11;33.00;;;15.43;;
7017;SDS011;3549;42.162;24.726;2023-03-14T06:22:37;49.83;;;20.10;;
7017;SDS011;3549;42.162;24.726;2023-03-14T06:25:04;63.00;;;27.83;;
7017;SDS011;3549;42.162;24.726;2023-03-14T06:27:30;42.63;;;20.47;;
7017;SDS011;3549;42.162;24.726;2023-03-14T06:29:56;42.50;;;21.13;;
7017;SDS011;3549;42.162;24.726;2023-03-14T06:32:21;38.40;;;18.40;;
7017;SDS011;3549;42.162;24.726;2023-03-14T06:34:46;36.63;;;16.50;;
7017;SDS011;3549;42.162;24.726;2023-03-14T06:37:12;33.10;;;16.67;;
7017;SDS011;3549;42.162;24.726;2023-03-14T06:39:37;33.40;;;16.40;;
7017;SDS011;3549;42.162;24.726;2023-03-14T06:42:04;39.70;;;18.83;;
7017;SDS011;3549;42.162;24.726;2023-03-14T06:44:29;42.13;;;20.10;;
7017;SDS011;3549;42.162;24.726;2023-03-14T06:46:55;38.60;;;18.23;;
7017;SDS011;3549;42.162;24.726;2023-03-14T06:49:21;37.10;;;17.40;;
7017;SDS011;3549;42.162;24.726;2023-03-14T06:51:46;28.87;;;14.80;;
7017;SDS011;3549;42.162;24.726;2023-03-14T06:54:12;31.17;;;13.77;;
7017;SDS011;3549;42.162;24.726;2023-03-14T06:56:37;28.57;;;14.03;;
7017;SDS011;3549;42.162;24.726;2023-03-14T06:59:03;29.07;;;14.63;;
7017;SDS011;3549;42.162;24.726;2023-03-14T07:01:29;31.10;;;15.10;;
7017;SDS011;3549;42.162;24.726;2023-03-14T07:03:55;33.13;;;15.23;;
7017;SDS011;3549;42.162;24.726;2023-03-14T07:06:21;32.90;;;15.87;;
7017;SDS011;3549;42.162;24.726;2023-03-14T07:08:47;35.23;;;16.93;;
7017;SDS011;3549;42.162;24.726;2023-03-14T07:11:13;39.20;;;17.90;;
7017;SDS011;3549;42.162;24.726;2023-03-14T07:13:39;44.40;;;17.93;;
7017;SDS011;3549;42.162;24.726;2023-03-14T07:16:05;40.50;;;18.63;;
7017;SDS011;3549;42.162;24.726;2023-03-14T07:18:31;41.03;;;18.63;;
7017;SDS011;3549;42.162;24.726;2023-03-14T07:20:57;35.30;;;16.67;;
7017;SDS011;3549;42.162;24.726;2023-03-14T07:23:22;36.77;;;17.33;;
7017;SDS011;3549;42.162;24.726;2023-03-14T07:25:48;36.43;;;17.83;;
7017;SDS011;3549;42.162;24.726;2023-03-14T07:28:13;34.80;;;16.77;;
7017;SDS011;3549;42.162;24.726;2023-03-14T07:30:39;36.37;;;16.73;;
7017;SDS011;3549;42.162;24.726;2023-03-14T07:33:04;38.50;;;16.90;;
7017;SDS011;3549;42.162;24.726;2023-03-14T07:35:29;35.40;;;16.93;;
7017;SDS011;3549;42.162;24.726;2023-03-14T07:37:55;32.93;;;16.07;;
7017;SDS011;3549;42.162;24.726;2023-03-14T07:40:20;42.60;;;18.40;;
7017;SDS011;3549;42.162;24.726;2023-03-14T07:42:46;38.00;;;18.53;;
7017;SDS011;3549;42.162;24.726;2023-03-14T07:45:11;41.90;;;17.70;;
7017;SDS011;3549;42.162;24.726;2023-03-14T07:47:37;31.63;;;14.17;;
7017;SDS011;3549;42.162;24.726;2023-03-14T07:50:03;29.50;;;13.50;;
7017;SDS011;3549;42.162;24.726;2023-03-14T07:52:29;32.13;;;15.37;;
7017;SDS011;3549;42.162;24.726;2023-03-14T07:54:55;40.20;;;15.20;;
7017;SDS011;3549;42.162;24.726;2023-03-14T07:57:20;29.80;;;14.00;;
7017;SDS011;3549;42.162;24.726;2023-03-14T07:59:46;33.10;;;14.57;;
7017;SDS011;3549;42.162;24.726;2023-03-14T08:02:12;31.13;;;14.33;;
7017;SDS011;3549;42.162;24.726;2023-03-14T08:04:38;25.40;;;13.67;;
7017;SDS011;3549;42.162;24.726;2023-03-14T08:07:05;25.73;;;14.17;;
7017;SDS011;3549;42.162;24.726;2023-03-14T08:09:31;26.00;;;13.17;;
7017;SDS011;3549;42.162;24.726;2023-03-14T08:11:57;29.53;;;14.93;;
7017;SDS011;3549;42.162;24.726;2023-03-14T08:14:22;33.07;;;15.73;;
7017;SDS011;3549;42.162;24.726;2023-03-14T08:16:49;31.63;;;15.17;;
7017;SDS011;3549;42.162;24.726;2023-03-14T08:19:15;28.87;;;14.20;;
7017;SDS011;3549;42.162;24.726;2023-03-14T08:21:40;23.80;;;13.30;;
7017;SDS011;3549;42.162;24.726;2023-03-14T08:24:06;26.90;;;14.23;;
7017;SDS011;3549;42.162;24.726;2023-03-14T08:26:32;30.10;;;14.63;;
7017;SDS011;3549;42.162;24.726;2023-03-14T08:28:57;27.13;;;14.57;;
7017;SDS011;3549;42.162;24.726;2023-03-14T08:31:22;26.97;;;14.30;;
7017;SDS011;3549;42.162;24.726;2023-03-14T08:33:48;23.80;;;13.10;;
7017;SDS011;3549;42.162;24.726;2023-03-14T08:36:13;28.60;;;15.13;;
7017;SDS011;3549;42.162;24.726;2023-03-14T08:38:39;26.60;;;13.60;;
7017;SDS011;3549;42.162;24.726;2023-03-14T08:41:08;25.73;;;13.50;;
7017;SDS011;3549;42.162;24.726;2023-03-14T08:43:33;23.40;;;13.43;;
7017;SDS011;3549;42.162;24.726;2023-03-14T08:45:59;28.87;;;13.97;;
7017;SDS011;3549;42.162;24.726;2023-03-14T08:48:26;27.17;;;13.20;;
7017;SDS011;3549;42.162;24.726;2023-03-14T08:50:52;24.27;;;13.40;;
7017;SDS011;3549;42.162;24.726;2023-03-14T08:53:18;24.20;;;13.83;;
7017;SDS011;3549;42.162;24.726;2023-03-14T08:55:45;29.07;;;13.67;;
7017;SDS011;3549;42.162;24.726;2023-03-14T08:58:11;27.47;;;13.70;;
7017;SDS011;3549;42.162;24.726;2023-03-14T09:00:36;26.53;;;13.63;;
7017;SDS011;3549;42.162;24.726;2023-03-14T09:03:02;25.00;;;13.60;;
7017;SDS011;3549;42.162;24.726;2023-03-14T09:05:27;26.43;;;13.33;;
7017;SDS011;3549;42.162;24.726;2023-03-14T09:07:52;25.63;;;13.53;;
7017;SDS011;3549;42.162;24.726;2023-03-14T09:10:18;26.03;;;13.43;;
7017;SDS011;3549;42.162;24.726;2023-03-14T09:12:43;26.53;;;13.07;;
7017;SDS011;3549;42.162;24.726;2023-03-14T09:15:09;23.53;;;13.40;;
7017;SDS011;3549;42.162;24.726;2023-03-14T09:17:34;29.03;;;12.90;;
7017;SDS011;3549;42.162;24.726;2023-03-14T09:20:00;21.33;;;12.83;;
7017;SDS011;3549;42.162;24.726;2023-03-14T09:22:30;21.50;;;12.47;;
7017;SDS011;3549;42.162;24.726;2023-03-14T09:24:56;21.37;;;12.47;;
7017;SDS011;3549;42.162;24.726;2023-03-14T09:27:21;23.93;;;12.67;;
7017;SDS011;3549;42.162;24.726;2023-03-14T09:29:46;21.30;;;11.60;;
7017;SDS011;3549;42.162;24.726;2023-03-14T09:32:12;20.00;;;10.67;;
7017;SDS011;3549;42.162;24.726;2023-03-14T09:34:37;22.67;;;10.07;;
7017;SDS011;3549;42.162;24.726;2023-03-14T09:37:03;16.90;;;9.00;;
7017;SDS011;3549;42.162;24.726;2023-03-14T09:39:28;18.17;;;9.20;;
7017;SDS011;3549;42.162;24.726;2023-03-14T09:41:54;19.23;;;9.20;;
7017;SDS011;3549;42.162;24.726;2023-03-14T09:44:30;20.17;;;9.53;;
7017;SDS011;3549;42.162;24.726;2023-03-14T09:46:59;19.43;;;8.57;;
7017;SDS011;3549;42.162;24.726;2023-03-14T09:52:00;11.83;;;7.37;;
7017;SDS011;3549;42.162;24.726;2023-03-14T09:56:57;14.03;;;7.57;;
7017;SDS011;3549;42.162;24.726;2023-03-14T09:59:23;10.60;;;6.80;;
7017;SDS011;3549;42.162;24.726;2023-03-14T10:01:48;12.20;;;6.83;;
7017;SDS011;3549;42.162;24.726;2023-03-14T10:04:15;10.90;;;6.83;;
7017;SDS011;3549;42.162;24.726;2023-03-14T10:06:45;10.47;;;6.90;;
7017;SDS011;3549;42.162;24.726;2023-03-14T10:09:22;14.57;;;7.67;;
7017;SDS011;3549;42.162;24.726;2023-03-14T10:11:54;11.87;;;7.73;;
7017;SDS011;3549;42.162;24.726;2023-03-14T10:14:34;12.40;;;7.90;;
7017;SDS011;3549;42.162;24.726;2023-03-14T10:17:07;15.60;;;7.93;;
7017;SDS011;3549;42.162;24.726;2023-03-14T10:19:37;21.87;;;10.57;;
7017;SDS011;3549;42.162;24.726;2023-03-14T10:22:04;12.53;;;8.13;;
7017;SDS011;3549;42.162;24.726;2023-03-14T10:24:32;14.43;;;7.10;;
7017;SDS011;3549;42.162;24.726;2023-03-14T10:27:03;14.90;;;7.90;;
7017;SDS011;3549;42.162;24.726;2023-03-14T10:29:31;14.70;;;8.10;;
7017;SDS011;3549;42.162;24.726;2023-03-14T10:32:02;34.67;;;16.03;;
7017;SDS011;3549;42.162;24.726;2023-03-14T10:34:32;11.67;;;7.83;;
7017;SDS011;3549;42.162;24.726;2023-03-14T10:37:21;16.63;;;8.43;;
7017;SDS011;3549;42.162;24.726;2023-03-14T10:39:52;18.17;;;10.20;;
7017;SDS011;3549;42.162;24.726;2023-03-14T10:44:49;11.93;;;7.33;;
7017;SDS011;3549;42.162;24.726;2023-03-14T10:47:22;12.87;;;7.90;;
7017;SDS011;3549;42.162;24.726;2023-03-14T10:49:49;12.33;;;7.17;;
7017;SDS011;3549;42.162;24.726;2023-03-14T10:52:25;11.20;;;6.90;;
7017;SDS011;3549;42.162;24.726;2023-03-14T10:54:59;11.93;;;6.73;;
7017;SDS011;3549;42.162;24.726;2023-03-14T10:57:27;12.73;;;7.87;;
7017;SDS011;3549;42.162;24.726;2023-03-14T10:59:53;9.27;;;6.57;;
7017;SDS011;3549;42.162;24.726;2023-03-14T11:04:55;11.13;;;6.97;;
7017;SDS011;3549;42.162;24.726;2023-03-14T11:07:28;10.83;;;6.37;;
7017;SDS011;3549;42.162;24.726;2023-03-14T11:15:09;9.57;;;6.23;;
7017;SDS011;3549;42.162;24.726;2023-03-14T11:20:29;10.13;;;5.90;;
7017;SDS011;3549;42.162;24.726;2023-03-14T11:28:33;10.47;;;5.63;;
7017;SDS011;3549;42.162;24.726;2023-03-14T11:31:23;11.43;;;6.40;;
7017;SDS011;3549;42.162;24.726;2023-03-14T11:36:59;9.93;;;5.87;;
7017;SDS011;3549;42.162;24.726;2023-03-14T11:39:39;9.10;;;5.87;;
7017;SDS011;3549;42.162;24.726;2023-03-14T11:42:13;9.20;;;5.77;;
7017;SDS011;3549;42.162;24.726;2023-03-14T11:44:41;10.83;;;6.70;;
7017;SDS011;3549;42.162;24.726;2023-03-14T11:50:03;10.73;;;5.50;;
7017;SDS011;3549;42.162;24.726;2023-03-14T11:53:07;7.73;;;5.70;;
7017;SDS011;3549;42.162;24.726;2023-03-14T11:55:40;8.03;;;5.33;;
7017;SDS011;3549;42.162;24.726;2023-03-14T11:58:27;8.77;;;5.70;;
7017;SDS011;3549;42.162;24.726;2023-03-14T12:01:01;9.77;;;5.57;;
7017;SDS011;3549;42.162;24.726;2023-03-14T12:03:50;9.80;;;5.27;;
7017;SDS011;3549;42.162;24.726;2023-03-14T12:09:18;10.40;;;5.80;;
7017;SDS011;3549;42.162;24.726;2023-03-14T12:11:47;10.60;;;5.70;;
7017;SDS011;3549;42.162;24.726;2023-03-14T12:14:18;8.43;;;5.93;;
7017;SDS011;3549;42.162;24.726;2023-03-14T12:16:48;9.70;;;5.83;;
7017;SDS011;3549;42.162;24.726;2023-03-14T12:21:56;7.87;;;5.10;;
7017;SDS011;3549;42.162;24.726;2023-03-14T12:24:27;8.60;;;5.80;;
7017;SDS011;3549;42.162;24.726;2023-03-14T12:26:59;8.40;;;6.00;;
7017;SDS011;3549;42.162;24.726;2023-03-14T12:29:26;8.50;;;5.83;;
7017;SDS011;3549;42.162;24.726;2023-03-14T12:34:28;9.03;;;5.80;;
7017;SDS011;3549;42.162;24.726;2023-03-14T12:37:12;9.03;;;5.60;;
7017;SDS011;3549;42.162;24.726;2023-03-14T12:45:27;12.87;;;8.80;;
7017;SDS011;3549;42.162;24.726;2023-03-14T12:50:53;12.70;;;7.63;;
7017;SDS011;3549;42.162;24.726;2023-03-14T13:01:29;8.20;;;6.50;;
7017;SDS011;3549;42.162;24.726;2023-03-14T13:03:59;8.73;;;6.43;;
7017;SDS011;3549;42.162;24.726;2023-03-14T13:11:54;10.37;;;7.93;;
7017;SDS011;3549;42.162;24.726;2023-03-14T13:14:21;13.40;;;8.67;;
7017;SDS011;3549;42.162;24.726;2023-03-14T13:16:47;12.57;;;8.00;;
7017;SDS011;3549;42.162;24.726;2023-03-14T13:19:18;17.67;;;9.23;;
7017;SDS011;3549;42.162;24.726;2023-03-14T13:21:48;9.87;;;6.50;;
7017;SDS011;3549;42.162;24.726;2023-03-14T13:24:22;9.50;;;6.63;;
7017;SDS011;3549;42.162;24.726;2023-03-14T13:26:49;8.47;;;6.33;;
7017;SDS011;3549;42.162;24.726;2023-03-14T13:29:19;11.83;;;7.17;;
7017;SDS011;3549;42.162;24.726;2023-03-14T13:31:47;12.83;;;6.70;;
7017;SDS011;3549;42.162;24.726;2023-03-14T13:34:14;9.87;;;6.30;;
7017;SDS011;3549;42.162;24.726;2023-03-14T13:36:40;10.10;;;7.23;;
7017;SDS011;3549;42.162;24.726;2023-03-14T13:39:18;10.47;;;7.67;;
7017;SDS011;3549;42.162;24.726;2023-03-14T13:41:47;11.17;;;6.67;;
7017;SDS011;3549;42.162;24.726;2023-03-14T13:44:14;11.10;;;6.90;;
7017;SDS011;3549;42.162;24.726;2023-03-14T13:46:42;11.73;;;7.00;;
7017;SDS011;3549;42.162;24.726;2023-03-14T13:49:10;14.63;;;7.03;;
7017;SDS011;3549;42.162;24.726;2023-03-14T13:51:41;13.50;;;7.20;;
7017;SDS011;3549;42.162;24.726;2023-03-14T13:54:15;10.97;;;6.70;;
7017;SDS011;3549;42.162;24.726;2023-03-14T13:56:41;9.43;;;6.50;;
7017;SDS011;3549;42.162;24.726;2023-03-14T14:01:52;9.33;;;6.50;;
7017;SDS011;3549;42.162;24.726;2023-03-14T14:04:21;10.87;;;6.23;;
7017;SDS011;3549;42.162;24.726;2023-03-14T14:06:56;10.10;;;6.70;;
7017;SDS011;3549;42.162;24.726;2023-03-14T14:09:46;9.87;;;6.13;;
7017;SDS011;3549;42.162;24.726;2023-03-14T14:15:05;9.23;;;5.90;;
7017;SDS011;3549;42.162;24.726;2023-03-14T14:17:41;7.97;;;5.90;;
7017;SDS011;3549;42.162;24.726;2023-03-14T14:20:14;10.50;;;6.97;;
7017;SDS011;3549;42.162;24.726;2023-03-14T14:22:56;8.70;;;6.10;;
7017;SDS011;3549;42.162;24.726;2023-03-14T14:25:22;10.13;;;6.33;;
7017;SDS011;3549;42.162;24.726;2023-03-14T14:27:48;8.37;;;5.70;;
7017;SDS011;3549;42.162;24.726;2023-03-14T14:32:43;10.13;;;5.50;;
7017;SDS011;3549;42.162;24.726;2023-03-14T14:35:20;9.73;;;5.70;;
7017;SDS011;3549;42.162;24.726;2023-03-14T14:37:50;8.53;;;5.40;;
7017;SDS011;3549;42.162;24.726;2023-03-14T14:40:17;7.67;;;5.40;;
7017;SDS011;3549;42.162;24.726;2023-03-14T14:42:45;8.67;;;5.10;;
7017;SDS011;3549;42.162;24.726;2023-03-14T14:45:22;10.33;;;5.40;;
7017;SDS011;3549;42.162;24.726;2023-03-14T14:48:02;9.37;;;5.77;;
7017;SDS011;3549;42.162;24.726;2023-03-14T14:52:57;11.87;;;6.20;;
7017;SDS011;3549;42.162;24.726;2023-03-14T14:55:28;10.50;;;6.73;;
7017;SDS011;3549;42.162;24.726;2023-03-14T14:57:58;11.87;;;7.00;;
7017;SDS011;3549;42.162;24.726;2023-03-14T15:00:41;11.53;;;5.93;;
7017;SDS011;3549;42.162;24.726;2023-03-14T15:03:12;9.67;;;5.73;;
7017;SDS011;3549;42.162;24.726;2023-03-14T15:05:43;11.47;;;7.07;;
7017;SDS011;3549;42.162;24.726;2023-03-14T15:08:12;11.87;;;6.30;;
7017;SDS011;3549;42.162;24.726;2023-03-14T15:10:37;9.67;;;6.63;;
7017;SDS011;3549;42.162;24.726;2023-03-14T15:13:03;10.60;;;7.10;;
7017;SDS011;3549;42.162;24.726;2023-03-14T15:15:28;10.80;;;6.70;;
7017;SDS011;3549;42.162;24.726;2023-03-14T15:17:54;13.37;;;7.63;;
7017;SDS011;3549;42.162;24.726;2023-03-14T15:20:19;12.37;;;7.63;;
7017;SDS011;3549;42.162;24.726;2023-03-14T15:22:48;11.47;;;6.40;;
7017;SDS011;3549;42.162;24.726;2023-03-14T15:25:13;12.13;;;7.90;;
7017;SDS011;3549;42.162;24.726;2023-03-14T15:27:39;17.30;;;7.20;;
7017;SDS011;3549;42.162;24.726;2023-03-14T15:30:11;11.37;;;6.43;;
7017;SDS011;3549;42.162;24.726;2023-03-14T15:32:38;12.07;;;6.80;;
7017;SDS011;3549;42.162;24.726;2023-03-14T15:35:04;10.27;;;6.80;;
7017;SDS011;3549;42.162;24.726;2023-03-14T15:37:29;13.13;;;7.00;;
7017;SDS011;3549;42.162;24.726;2023-03-14T15:39:55;9.97;;;6.70;;
7017;SDS011;3549;42.162;24.726;2023-03-14T15:42:22;14.50;;;8.20;;
7017;SDS011;3549;42.162;24.726;2023-03-14T15:44:48;21.03;;;13.20;;
7017;SDS011;3549;42.162;24.726;2023-03-14T15:47:14;20.33;;;13.50;;
7017;SDS011;3549;42.162;24.726;2023-03-14T15:49:39;32.33;;;20.00;;
7017;SDS011;3549;42.162;24.726;2023-03-14T15:52:05;18.53;;;9.67;;
7017;SDS011;3549;42.162;24.726;2023-03-14T15:54:32;15.97;;;9.20;;
7017;SDS011;3549;42.162;24.726;2023-03-14T15:56:58;21.57;;;12.47;;
7017;SDS011;3549;42.162;24.726;2023-03-14T15:59:24;33.57;;;16.93;;
7017;SDS011;3549;42.162;24.726;2023-03-14T16:01:50;24.67;;;14.07;;